Kensington, New Hampshire
Current Conditions -  °F | °C
As of 5:58 AM on Friday 28 Nov 2014 (Local Time) from KPSM Reporting Station
Light Snow Light Snow  
Wind Chill: 15°   Ceiling: 1700
Heat Index: 26°   Visibility: 1mi
Dew Point: 22°   Wind: 13mph
Humidity: 88%   Direction: 330°NNW
Pressure: 30.02"   Gusts: NA
Location:  42.9832°N, 70.9915°W
Report Text: KPSM 281058Z 33011KT 1SM R34/P6000FT -SN BR FEW006 OVC017 M03/M05 A3002 RMK AO2A SLP170 P0002 T10351053
Loading
Personal Weather Stations






























Interactive Weather Map New forecast layout! Learn more

10-Day Weather Forecast

Advertisements
Track Severe Weather on mobile